createdAt,value
2023-06-16T00:01:20.751Z,65.83
2023-06-16T00:04:26.916Z,65.75
2023-06-16T00:07:32.449Z,65.73
2023-06-16T00:10:34.871Z,65.70
2023-06-16T00:13:37.538Z,65.40
2023-06-16T00:16:40.390Z,65.79
2023-06-16T00:19:42.862Z,66.01
2023-06-16T00:22:49.212Z,65.94
2023-06-16T00:25:51.979Z,66.70
2023-06-16T00:28:54.666Z,66.02
2023-06-16T00:31:57.202Z,66.32
2023-06-16T00:34:59.733Z,65.84
2023-06-16T00:38:02.179Z,66.64
2023-06-16T00:41:04.905Z,66.54
2023-06-16T00:44:07.509Z,65.47
2023-06-16T00:47:10.137Z,63.72
2023-06-16T00:50:12.903Z,64.48
2023-06-16T00:53:16.431Z,64.66
2023-06-16T00:56:22.815Z,64.35
2023-06-16T00:59:27.720Z,64.22
2023-06-16T01:02:30.266Z,64.62
2023-06-16T01:05:34.312Z,64.27
2023-06-16T01:08:48.521Z,64.43
2023-06-16T01:12:15.302Z,64.52
2023-06-16T01:15:22.461Z,64.72
2023-06-16T01:18:27.062Z,64.94
2023-06-16T01:21:38.952Z,64.99
2023-06-16T01:24:43.488Z,64.90
2023-06-16T01:27:48.847Z,65.31
2023-06-16T01:30:53.413Z,65.25
2023-06-16T01:33:57.410Z,64.77
2023-06-16T01:37:01.433Z,64.69
2023-06-16T01:40:04.904Z,63.98
2023-06-16T01:43:10.920Z,64.04
2023-06-16T01:46:15.160Z,62.99
2023-06-16T01:49:20.080Z,62.96
2023-06-16T01:52:22.522Z,63.72
2023-06-16T01:55:25.059Z,63.46
2023-06-16T01:58:28.206Z,63.83
2023-06-16T02:01:32.040Z,64.16
2023-06-16T02:04:38.881Z,63.97
2023-06-16T02:07:45.384Z,63.90
2023-06-16T02:10:48.554Z,63.90
2023-06-16T02:13:51.279Z,63.63
2023-06-16T02:16:54.179Z,64.29
2023-06-16T02:19:56.995Z,64.44
2023-06-16T02:22:59.406Z,64.74
2023-06-16T02:26:01.802Z,64.87
2023-06-16T02:29:04.788Z,65.23
2023-06-16T02:32:07.743Z,64.85
2023-06-16T02:35:10.589Z,65.10
2023-06-16T02:38:13.013Z,64.82
2023-06-16T02:41:15.693Z,65.62
2023-06-16T02:44:18.130Z,66.12
2023-06-16T02:47:20.708Z,65.37
2023-06-16T02:50:24.671Z,67.96
2023-06-16T02:53:30.454Z,70.16
2023-06-16T02:56:34.163Z,70.74
2023-06-16T02:59:37.385Z,71.38
2023-06-16T03:02:39.977Z,73.07
2023-06-16T03:05:43.198Z,73.95
2023-06-16T03:08:45.792Z,75.48
2023-06-16T03:11:48.552Z,77.15
2023-06-16T03:14:51.865Z,78.73
2023-06-16T03:17:56.131Z,81.73
2023-06-16T03:20:59.220Z,82.47
2023-06-16T03:24:06.396Z,81.86
2023-06-16T03:27:09.905Z,83.18
2023-06-16T03:30:25.413Z,82.72
2023-06-16T03:33:36.489Z,83.13
2023-06-16T03:36:40.416Z,82.25
2023-06-16T03:39:44.042Z,79.85
2023-06-16T03:42:46.676Z,79.02
2023-06-16T03:45:49.761Z,79.67
2023-06-16T03:48:52.371Z,77.71
2023-06-16T03:51:58.007Z,75.63
2023-06-16T03:55:01.534Z,73.22
2023-06-16T03:58:04.540Z,69.97
2023-06-16T04:01:07.640Z,67.97
2023-06-16T04:04:10.447Z,63.89
2023-06-16T04:07:13.427Z,56.85
2023-06-16T04:10:17.717Z,55.99
2023-06-16T04:13:20.489Z,51.42
2023-06-16T04:16:24.652Z,54.31
2023-06-16T04:19:29.312Z,47.51
2023-06-16T04:22:31.817Z,47.88
2023-06-16T04:25:36.651Z,49.26
2023-06-16T04:28:43.825Z,52.35
2023-06-16T04:31:52.626Z,55.36
2023-06-16T04:34:58.964Z,47.55
2023-06-16T04:38:02.539Z,51.46
2023-06-16T04:41:05.725Z,55.30
2023-06-16T04:44:09.296Z,59.08
2023-06-16T04:47:13.784Z,61.34
2023-06-16T04:50:18.075Z,62.27
2023-06-16T04:53:21.766Z,62.58
2023-06-16T04:56:24.490Z,61.94
2023-06-16T04:59:27.252Z,63.20
2023-06-16T05:02:29.774Z,61.91
2023-06-16T05:05:33.432Z,62.17
2023-06-16T05:08:35.887Z,61.12
2023-06-16T05:11:38.432Z,61.36
2023-06-16T05:14:41.028Z,62.09
2023-06-16T05:17:46.012Z,63.11
2023-06-16T05:20:48.633Z,64.16
2023-06-16T05:23:54.317Z,63.55
2023-06-16T05:26:57.718Z,62.24
2023-06-16T05:30:01.106Z,62.30
2023-06-16T05:33:05.209Z,61.97
2023-06-16T05:36:08.735Z,61.12
2023-06-16T05:39:16.125Z,61.62
2023-06-16T05:42:20.357Z,60.45
2023-06-16T05:45:22.986Z,61.28
2023-06-16T05:48:26.521Z,56.69
2023-06-16T05:51:28.940Z,57.01
2023-06-16T05:54:31.823Z,52.79
2023-06-16T05:57:35.640Z,50.70
2023-06-16T06:00:38.063Z,51.31
2023-06-16T06:03:48.714Z,54.70
2023-06-16T06:06:54.220Z,56.10
2023-06-16T06:09:57.767Z,60.04
2023-06-16T06:13:03.954Z,62.08
2023-06-16T06:16:07.552Z,60.98
2023-06-16T06:19:10.780Z,60.28
2023-06-16T06:22:13.295Z,61.37
2023-06-16T06:25:17.336Z,60.41
2023-06-16T06:28:20.134Z,58.81
2023-06-16T06:31:22.895Z,60.19
2023-06-16T06:34:25.331Z,58.88
2023-06-16T06:37:31.892Z,61.57
2023-06-16T06:40:37.345Z,62.23
2023-06-16T06:43:40.935Z,63.09
2023-06-16T06:46:50.349Z,62.05
2023-06-16T06:49:57.170Z,64.18
2023-06-16T06:53:00.755Z,64.16
2023-06-16T06:56:03.279Z,64.18
2023-06-16T06:59:05.853Z,63.56
2023-06-16T07:02:08.481Z,63.64
2023-06-16T07:05:11.015Z,63.40
2023-06-16T07:08:13.525Z,63.69
2023-06-16T07:11:15.946Z,62.65
2023-06-16T07:14:18.368Z,61.53
2023-06-16T07:17:21.036Z,63.27
2023-06-16T07:20:23.421Z,62.14
2023-06-16T07:23:28.750Z,59.07
2023-06-16T07:26:31.246Z,57.97
2023-06-16T07:29:33.690Z,55.89
2023-06-16T07:32:37.468Z,55.09
2023-06-16T07:35:40.018Z,57.56
2023-06-16T07:38:42.621Z,57.85
2023-06-16T07:41:45.138Z,59.33
2023-06-16T07:44:48.813Z,58.29
2023-06-16T07:47:51.306Z,60.52
2023-06-16T07:50:54.685Z,60.38
2023-06-16T07:53:57.203Z,61.66
2023-06-16T07:56:59.610Z,61.74
2023-06-16T08:00:02.041Z,63.21
2023-06-16T08:03:15.005Z,62.66
2023-06-16T08:06:22.388Z,62.64
2023-06-16T08:09:24.979Z,63.11
2023-06-16T08:12:28.756Z,62.84
2023-06-16T08:15:31.848Z,62.30
2023-06-16T08:18:34.307Z,61.21
2023-06-16T08:21:38.830Z,62.65
2023-06-16T08:24:41.318Z,63.03
2023-06-16T08:27:43.839Z,62.48
2023-06-16T08:30:46.372Z,64.18
2023-06-16T08:33:48.876Z,64.78
2023-06-16T08:36:51.394Z,65.51
2023-06-16T08:39:53.831Z,65.04
2023-06-16T08:42:56.723Z,65.49
2023-06-16T08:46:00.343Z,65.07
2023-06-16T08:49:04.884Z,65.02
2023-06-16T08:52:09.955Z,63.86
2023-06-16T08:55:15.449Z,63.20
2023-06-16T08:58:21.319Z,62.57
2023-06-16T09:01:25.694Z,59.56
2023-06-16T09:04:30.169Z,58.09
2023-06-16T09:07:32.543Z,54.31
2023-06-16T09:10:35.723Z,44.95
2023-06-16T09:13:44.116Z,48.30
2023-06-16T09:16:56.762Z,51.00
2023-06-16T09:19:59.328Z,53.49
2023-06-16T09:23:02.122Z,53.82
2023-06-16T09:26:12.663Z,54.69
2023-06-16T09:29:23.258Z,53.93
2023-06-16T09:32:26.392Z,52.74
2023-06-16T09:35:30.559Z,52.69
2023-06-16T09:38:39.295Z,53.56
2023-06-16T09:41:44.353Z,53.03
2023-06-16T09:44:49.479Z,51.00
2023-06-16T09:47:52.316Z,52.08
2023-06-16T09:50:57.709Z,51.59
2023-06-16T09:54:00.603Z,50.95
2023-06-16T09:57:04.770Z,50.94
2023-06-16T10:00:17.596Z,53.12
2023-06-16T10:03:21.940Z,51.86
2023-06-16T10:06:29.495Z,51.87
2023-06-16T10:09:55.119Z,52.53
2023-06-16T10:13:04.935Z,54.99
2023-06-16T10:16:12.727Z,54.82
2023-06-16T10:19:15.657Z,53.30
2023-06-16T10:22:18.794Z,55.38
2023-06-16T10:25:22.492Z,54.78
2023-06-16T10:28:26.211Z,53.84
2023-06-16T10:31:29.545Z,54.68
2023-06-16T10:34:32.032Z,55.88
2023-06-16T10:37:34.538Z,54.95
2023-06-16T10:40:43.208Z,53.98
2023-06-16T10:43:45.682Z,56.89
2023-06-16T10:47:11.419Z,55.06
2023-06-16T10:50:13.979Z,55.32
2023-06-16T10:53:23.681Z,53.68
2023-06-16T10:56:26.515Z,54.91
2023-06-16T10:59:29.234Z,54.32
2023-06-16T11:02:35.298Z,54.23
2023-06-16T11:05:41.623Z,56.02
2023-06-16T11:08:55.078Z,57.19
2023-06-16T11:12:01.053Z,59.61
2023-06-16T11:15:09.593Z,60.76
2023-06-16T11:18:14.999Z,60.20
2023-06-16T11:21:17.564Z,59.75
2023-06-16T11:24:21.211Z,62.26
2023-06-16T11:27:24.744Z,59.11
2023-06-16T11:30:28.882Z,60.23
2023-06-16T11:33:34.163Z,60.44
2023-06-16T11:36:36.691Z,61.84
2023-06-16T11:39:45.598Z,59.36
2023-06-16T11:43:02.517Z,60.37
2023-06-16T11:46:05.025Z,60.52
2023-06-16T11:49:07.433Z,62.54
2023-06-16T11:52:10.975Z,65.33
2023-06-16T11:55:14.010Z,65.00
2023-06-16T11:58:16.390Z,66.09
2023-06-16T12:01:19.436Z,65.38
2023-06-16T12:04:22.798Z,67.93
2023-06-16T12:07:25.458Z,67.81
2023-06-16T12:10:27.965Z,67.31
2023-06-16T12:13:34.330Z,65.40
2023-06-16T12:16:36.980Z,67.67
2023-06-16T12:19:41.456Z,66.30
2023-06-16T12:22:46.253Z,71.01
2023-06-16T12:25:50.025Z,68.69
2023-06-16T12:28:57.078Z,70.79
2023-06-16T12:32:01.851Z,72.45
2023-06-16T12:35:05.498Z,73.04
2023-06-16T12:38:08.142Z,72.14
2023-06-16T12:41:14.216Z,72.94
2023-06-16T12:44:17.239Z,74.31
2023-06-16T12:47:21.926Z,74.43
2023-06-16T12:50:24.362Z,74.62
2023-06-16T12:53:26.827Z,74.85
2023-06-16T12:56:29.218Z,74.35
2023-06-16T12:59:31.930Z,75.11
2023-06-16T13:02:34.422Z,75.84
2023-06-16T13:05:36.885Z,77.92
2023-06-16T13:08:39.307Z,78.64
2023-06-16T13:11:42.419Z,79.91
2023-06-16T13:14:44.987Z,81.53
2023-06-16T13:17:47.456Z,84.90
2023-06-16T13:20:51.967Z,84.21
2023-06-16T13:23:54.510Z,83.86
2023-06-16T13:26:56.976Z,84.28
2023-06-16T13:29:59.364Z,84.36
2023-06-16T13:33:01.868Z,86.64
2023-06-16T13:36:07.463Z,87.47
2023-06-16T13:39:10.683Z,89.67
2023-06-16T13:42:13.436Z,91.12
2023-06-16T13:45:16.054Z,88.73
2023-06-16T13:48:18.924Z,90.89
2023-06-16T13:51:21.431Z,91.44
2023-06-16T13:54:23.847Z,90.91
2023-06-16T13:57:26.318Z,91.15
2023-06-16T14:00:28.853Z,88.52
2023-06-16T14:03:31.634Z,89.53
2023-06-16T14:06:34.036Z,91.60
2023-06-16T14:09:36.510Z,89.43
2023-06-16T14:12:38.948Z,91.59
2023-06-16T14:15:41.374Z,91.05
2023-06-16T14:18:43.771Z,92.64
2023-06-16T14:21:46.257Z,92.88
2023-06-16T14:24:48.850Z,94.39
2023-06-16T14:27:51.363Z,94.40
2023-06-16T14:30:53.891Z,93.16
2023-06-16T14:33:56.384Z,91.36
2023-06-16T14:36:58.873Z,90.30
2023-06-16T14:40:01.958Z,88.64
2023-06-16T14:43:04.466Z,86.81
2023-06-16T14:46:06.861Z,88.88
2023-06-16T14:49:09.306Z,87.17
2023-06-16T14:52:11.730Z,87.71
2023-06-16T14:55:14.258Z,87.05
2023-06-16T14:58:16.675Z,89.05
2023-06-16T15:01:19.118Z,88.94
2023-06-16T15:04:21.772Z,88.41
2023-06-16T15:07:24.239Z,87.37
2023-06-16T15:10:26.657Z,88.70
2023-06-16T15:13:29.043Z,89.35
2023-06-16T15:16:31.802Z,89.19
2023-06-16T15:19:34.287Z,90.04
2023-06-16T15:22:36.650Z,90.15
2023-06-16T15:25:39.096Z,90.54
2023-06-16T15:28:41.522Z,90.55
2023-06-16T15:31:44.125Z,90.60
2023-06-16T15:34:46.547Z,90.92
2023-06-16T15:37:48.957Z,92.36
2023-06-16T15:40:51.423Z,92.79
2023-06-16T15:43:53.875Z,94.09
2023-06-16T15:46:56.686Z,95.76
2023-06-16T15:49:59.112Z,96.59
2023-06-16T15:53:02.958Z,96.70
2023-06-16T15:56:05.676Z,97.77
2023-06-16T15:59:09.669Z,98.96
2023-06-16T16:02:12.320Z,98.24
2023-06-16T16:05:16.235Z,100.00
2023-06-16T16:08:20.321Z,100.00
2023-06-16T16:11:22.789Z,100.00
2023-06-16T16:14:25.217Z,100.00
2023-06-16T16:17:29.798Z,100.00
2023-06-16T16:20:32.227Z,100.00
2023-06-16T16:23:34.690Z,100.00
2023-06-16T16:26:37.239Z,100.00
2023-06-16T16:29:39.687Z,100.00
2023-06-16T16:32:42.290Z,100.00
2023-06-16T16:35:46.346Z,100.00
2023-06-16T16:38:48.870Z,100.00
2023-06-16T16:41:53.736Z,100.00
2023-06-16T16:44:56.186Z,100.00
2023-06-16T16:47:58.981Z,100.00
2023-06-16T16:51:01.648Z,100.00
2023-06-16T16:54:04.124Z,100.00
2023-06-16T16:57:06.926Z,100.00
2023-06-16T17:00:09.984Z,100.00
2023-06-16T17:03:12.469Z,99.86
2023-06-16T17:06:14.951Z,100.00
2023-06-16T17:09:17.902Z,99.99
2023-06-16T17:12:20.420Z,100.00
2023-06-16T17:15:23.504Z,100.00
2023-06-16T17:18:26.711Z,100.00
2023-06-16T17:21:29.185Z,99.03
2023-06-16T17:24:31.655Z,100.00
2023-06-16T17:27:45.317Z,100.00
2023-06-16T17:30:56.549Z,100.00
2023-06-16T17:34:00.376Z,100.00
2023-06-16T17:37:02.848Z,100.00
2023-06-16T17:40:07.765Z,100.00
2023-06-16T17:43:10.175Z,100.00
2023-06-16T17:46:13.517Z,100.00
2023-06-16T17:49:19.904Z,100.00
2023-06-16T17:52:22.347Z,100.00
2023-06-16T17:55:24.906Z,100.00
2023-06-16T17:58:27.317Z,100.00
2023-06-16T18:01:30.025Z,100.00
2023-06-16T18:04:32.558Z,100.00
2023-06-16T18:07:35.534Z,100.00
2023-06-16T18:10:39.682Z,100.00
2023-06-16T18:13:43.564Z,100.00
2023-06-16T18:16:46.180Z,100.00
2023-06-16T18:19:48.612Z,100.00
2023-06-16T18:22:52.778Z,100.00
2023-06-16T18:25:55.233Z,100.00
2023-06-16T18:28:58.015Z,100.00
2023-06-16T18:32:02.915Z,100.00
2023-06-16T18:35:06.672Z,100.00
2023-06-16T18:38:10.128Z,100.00
2023-06-16T18:41:13.691Z,100.00
2023-06-16T18:44:19.013Z,100.00
2023-06-16T18:47:21.394Z,100.00
2023-06-16T18:50:23.824Z,100.00
2023-06-16T18:53:26.336Z,100.00
2023-06-16T18:56:28.916Z,100.00
2023-06-16T18:59:33.697Z,100.00
2023-06-16T19:02:36.585Z,100.00
2023-06-16T19:05:45.086Z,100.00
2023-06-16T19:08:48.563Z,100.00
2023-06-16T19:11:50.994Z,100.00
2023-06-16T19:14:53.648Z,100.00
2023-06-16T19:17:56.304Z,100.00
2023-06-16T19:20:59.577Z,100.00
2023-06-16T19:24:02.252Z,100.00
2023-06-16T19:27:05.294Z,100.00
2023-06-16T19:30:08.769Z,100.00
2023-06-16T19:33:13.233Z,100.00
2023-06-16T19:36:15.980Z,100.00
2023-06-16T19:39:18.439Z,100.00
2023-06-16T19:42:20.928Z,100.00
2023-06-16T19:45:23.996Z,100.00
2023-06-16T19:48:27.079Z,100.00
2023-06-16T19:51:29.559Z,100.00
2023-06-16T19:54:32.029Z,100.00
2023-06-16T19:57:34.623Z,100.00
2023-06-16T20:00:37.175Z,100.00
2023-06-16T20:03:39.763Z,100.00
2023-06-16T20:06:42.817Z,100.00
2023-06-16T20:09:45.263Z,100.00
2023-06-16T20:12:47.748Z,100.00
2023-06-16T20:15:50.275Z,99.10
2023-06-16T20:18:53.239Z,97.93
2023-06-16T20:21:58.829Z,98.24
2023-06-16T20:25:01.272Z,97.82
2023-06-16T20:28:03.713Z,97.82
2023-06-16T20:31:06.336Z,97.38
2023-06-16T20:34:10.351Z,95.52
2023-06-16T20:37:14.293Z,94.68
2023-06-16T20:40:17.518Z,94.68
2023-06-16T20:43:20.470Z,95.10
2023-06-16T20:46:24.536Z,94.58
2023-06-16T20:49:27.031Z,94.77
2023-06-16T20:52:29.468Z,93.79
2023-06-16T20:55:33.239Z,94.00
2023-06-16T20:58:37.524Z,94.21
2023-06-16T21:01:44.312Z,94.59
2023-06-16T21:04:47.987Z,96.67
2023-06-16T21:07:50.588Z,95.25
2023-06-16T21:10:53.143Z,95.58
2023-06-16T21:13:55.862Z,98.04
2023-06-16T21:16:58.279Z,98.26
2023-06-16T21:20:00.769Z,99.31
2023-06-16T21:23:06.033Z,100.00
2023-06-16T21:26:08.823Z,100.00
2023-06-16T21:29:11.430Z,100.00
2023-06-16T21:32:13.901Z,100.00
2023-06-16T21:35:16.465Z,100.00
2023-06-16T21:38:21.649Z,100.00
2023-06-16T21:41:25.236Z,100.00
2023-06-16T21:44:27.773Z,100.00
2023-06-16T21:47:30.407Z,100.00
2023-06-16T21:50:32.843Z,98.67
2023-06-16T21:53:37.100Z,94.58
2023-06-16T21:56:39.508Z,93.37
2023-06-16T21:59:41.883Z,93.64
2023-06-16T22:02:44.417Z,90.98
2023-06-16T22:05:47.235Z,86.94
2023-06-16T22:08:49.634Z,86.35
2023-06-16T22:11:52.214Z,85.10
2023-06-16T22:14:54.581Z,84.88
2023-06-16T22:17:58.127Z,85.96
2023-06-16T22:21:01.437Z,84.18
2023-06-16T22:24:04.183Z,85.05
2023-06-16T22:27:20.432Z,84.10
2023-06-16T22:30:24.649Z,84.03
2023-06-16T22:33:27.283Z,83.81
2023-06-16T22:36:29.734Z,83.90
2023-06-16T22:39:32.180Z,84.61
2023-06-16T22:42:34.620Z,84.67
2023-06-16T22:45:37.062Z,83.69
2023-06-16T22:48:42.472Z,84.83
2023-06-16T22:51:45.780Z,82.03
2023-06-16T22:54:48.175Z,82.10
2023-06-16T22:57:50.636Z,81.72
2023-06-16T23:00:53.050Z,83.12
2023-06-16T23:03:55.810Z,83.24
2023-06-16T23:06:59.740Z,83.13
2023-06-16T23:10:02.789Z,83.81
2023-06-16T23:13:05.293Z,83.79
2023-06-16T23:16:07.886Z,84.39
2023-06-16T23:19:12.519Z,86.31
2023-06-16T23:22:15.493Z,86.69
2023-06-16T23:25:18.162Z,87.17
2023-06-16T23:28:20.986Z,87.19
2023-06-16T23:31:23.401Z,88.07
2023-06-16T23:34:25.863Z,87.37
2023-06-16T23:37:28.845Z,88.12
2023-06-16T23:40:31.233Z,86.90
2023-06-16T23:43:34.164Z,86.22
2023-06-16T23:46:36.734Z,85.90
2023-06-16T23:49:39.284Z,84.18
2023-06-16T23:52:41.758Z,85.13
2023-06-16T23:55:44.162Z,85.25
2023-06-16T23:58:46.689Z,84.58
